sensor_id;sensor_type;location;lat;lon;timestamp;P1;durP1;ratioP1;P2;durP2;ratioP2
9536;SDS011;4807;48.024;11.726;2023-04-30T00:01:38;4.30;;;3.60;;
9536;SDS011;4807;48.024;11.726;2023-04-30T00:04:46;4.23;;;3.23;;
9536;SDS011;4807;48.024;11.726;2023-04-30T00:07:55;4.83;;;3.10;;
9536;SDS011;4807;48.024;11.726;2023-04-30T00:11:04;3.90;;;3.50;;
9536;SDS011;4807;48.024;11.726;2023-04-30T00:14:14;5.77;;;3.70;;
9536;SDS011;4807;48.024;11.726;2023-04-30T00:17:23;3.43;;;3.10;;
9536;SDS011;4807;48.024;11.726;2023-04-30T00:20:32;3.93;;;3.00;;
9536;SDS011;4807;48.024;11.726;2023-04-30T00:23:41;4.17;;;3.77;;
9536;SDS011;4807;48.024;11.726;2023-04-30T00:26:50;4.07;;;3.30;;
9536;SDS011;4807;48.024;11.726;2023-04-30T00:30:00;4.40;;;3.63;;
9536;SDS011;4807;48.024;11.726;2023-04-30T00:33:08;4.33;;;3.23;;
9536;SDS011;4807;48.024;11.726;2023-04-30T00:36:17;3.37;;;3.07;;
9536;SDS011;4807;48.024;11.726;2023-04-30T00:39:26;6.97;;;3.57;;
9536;SDS011;4807;48.024;11.726;2023-04-30T00:42:35;4.23;;;3.50;;
9536;SDS011;4807;48.024;11.726;2023-04-30T00:45:45;4.50;;;3.67;;
9536;SDS011;4807;48.024;11.726;2023-04-30T00:48:54;4.87;;;3.87;;
9536;SDS011;4807;48.024;11.726;2023-04-30T00:52:03;3.70;;;3.40;;
9536;SDS011;4807;48.024;11.726;2023-04-30T00:55:12;5.30;;;3.37;;
9536;SDS011;4807;48.024;11.726;2023-04-30T00:58:21;5.00;;;3.53;;
9536;SDS011;4807;48.024;11.726;2023-04-30T01:01:31;3.80;;;3.40;;
9536;SDS011;4807;48.024;11.726;2023-04-30T01:04:40;4.33;;;3.80;;
9536;SDS011;4807;48.024;11.726;2023-04-30T01:07:48;4.73;;;4.30;;
9536;SDS011;4807;48.024;11.726;2023-04-30T01:11:02;5.73;;;3.80;;
9536;SDS011;4807;48.024;11.726;2023-04-30T01:14:17;3.97;;;3.57;;
9536;SDS011;4807;48.024;11.726;2023-04-30T01:17:36;4.63;;;3.60;;
9536;SDS011;4807;48.024;11.726;2023-04-30T01:20:52;4.67;;;3.47;;
9536;SDS011;4807;48.024;11.726;2023-04-30T01:27:59;3.47;;;3.03;;
9536;SDS011;4807;48.024;11.726;2023-04-30T01:31:12;4.27;;;3.50;;
9536;SDS011;4807;48.024;11.726;2023-04-30T01:34:21;5.47;;;4.20;;
9536;SDS011;4807;48.024;11.726;2023-04-30T01:37:33;4.17;;;3.77;;
9536;SDS011;4807;48.024;11.726;2023-04-30T01:40:49;5.33;;;4.10;;
9536;SDS011;4807;48.024;11.726;2023-04-30T01:44:22;5.53;;;4.00;;
9536;SDS011;4807;48.024;11.726;2023-04-30T01:47:40;4.73;;;4.27;;
9536;SDS011;4807;48.024;11.726;2023-04-30T01:50:57;4.00;;;3.43;;
9536;SDS011;4807;48.024;11.726;2023-04-30T01:54:16;4.53;;;3.50;;
9536;SDS011;4807;48.024;11.726;2023-04-30T01:57:33;4.30;;;3.77;;
9536;SDS011;4807;48.024;11.726;2023-04-30T02:00:46;5.97;;;4.20;;
9536;SDS011;4807;48.024;11.726;2023-04-30T02:03:54;3.80;;;3.50;;
9536;SDS011;4807;48.024;11.726;2023-04-30T02:07:03;4.40;;;3.73;;
9536;SDS011;4807;48.024;11.726;2023-04-30T02:10:14;3.97;;;3.30;;
9536;SDS011;4807;48.024;11.726;2023-04-30T02:13:24;4.13;;;3.60;;
9536;SDS011;4807;48.024;11.726;2023-04-30T02:16:34;5.47;;;4.13;;
9536;SDS011;4807;48.024;11.726;2023-04-30T02:19:43;4.20;;;3.80;;
9536;SDS011;4807;48.024;11.726;2023-04-30T02:22:51;5.73;;;3.73;;
9536;SDS011;4807;48.024;11.726;2023-04-30T02:26:00;4.40;;;3.67;;
9536;SDS011;4807;48.024;11.726;2023-04-30T02:29:09;5.07;;;3.73;;
9536;SDS011;4807;48.024;11.726;2023-04-30T02:32:19;3.70;;;3.40;;
9536;SDS011;4807;48.024;11.726;2023-04-30T02:35:30;5.33;;;3.70;;
9536;SDS011;4807;48.024;11.726;2023-04-30T02:38:38;4.80;;;4.10;;
9536;SDS011;4807;48.024;11.726;2023-04-30T02:41:47;4.57;;;4.07;;
9536;SDS011;4807;48.024;11.726;2023-04-30T02:44:57;5.13;;;3.77;;
9536;SDS011;4807;48.024;11.726;2023-04-30T02:48:07;4.43;;;3.50;;
9536;SDS011;4807;48.024;11.726;2023-04-30T02:51:18;3.87;;;3.57;;
9536;SDS011;4807;48.024;11.726;2023-04-30T02:54:27;5.23;;;3.70;;
9536;SDS011;4807;48.024;11.726;2023-04-30T02:57:36;5.90;;;4.23;;
9536;SDS011;4807;48.024;11.726;2023-04-30T03:00:44;4.80;;;4.30;;
9536;SDS011;4807;48.024;11.726;2023-04-30T03:03:54;5.77;;;4.23;;
9536;SDS011;4807;48.024;11.726;2023-04-30T03:07:03;4.13;;;3.17;;
9536;SDS011;4807;48.024;11.726;2023-04-30T03:10:13;4.90;;;4.10;;
9536;SDS011;4807;48.024;11.726;2023-04-30T03:13:24;6.53;;;4.10;;
9536;SDS011;4807;48.024;11.726;2023-04-30T03:16:32;5.33;;;4.23;;
9536;SDS011;4807;48.024;11.726;2023-04-30T03:19:43;5.53;;;3.97;;
9536;SDS011;4807;48.024;11.726;2023-04-30T03:22:51;4.70;;;4.20;;
9536;SDS011;4807;48.024;11.726;2023-04-30T03:26:00;6.10;;;4.27;;
9536;SDS011;4807;48.024;11.726;2023-04-30T03:29:09;5.30;;;4.33;;
9536;SDS011;4807;48.024;11.726;2023-04-30T03:32:18;6.70;;;4.73;;
9536;SDS011;4807;48.024;11.726;2023-04-30T03:35:28;6.00;;;5.30;;
9536;SDS011;4807;48.024;11.726;2023-04-30T03:38:36;6.37;;;5.07;;
9536;SDS011;4807;48.024;11.726;2023-04-30T03:41:45;7.70;;;4.80;;
9536;SDS011;4807;48.024;11.726;2023-04-30T03:44:54;6.63;;;5.47;;
9536;SDS011;4807;48.024;11.726;2023-04-30T03:48:03;5.77;;;5.07;;
9536;SDS011;4807;48.024;11.726;2023-04-30T03:51:13;5.93;;;5.03;;
9536;SDS011;4807;48.024;11.726;2023-04-30T03:54:21;5.50;;;4.90;;
9536;SDS011;4807;48.024;11.726;2023-04-30T03:57:30;7.77;;;4.80;;
9536;SDS011;4807;48.024;11.726;2023-04-30T04:00:39;8.00;;;5.20;;
9536;SDS011;4807;48.024;11.726;2023-04-30T04:03:48;6.10;;;4.90;;
9536;SDS011;4807;48.024;11.726;2023-04-30T04:06:58;6.20;;;5.47;;
9536;SDS011;4807;48.024;11.726;2023-04-30T04:10:08;5.30;;;4.80;;
9536;SDS011;4807;48.024;11.726;2023-04-30T04:13:17;7.13;;;5.10;;
9536;SDS011;4807;48.024;11.726;2023-04-30T04:16:25;7.63;;;5.97;;
9536;SDS011;4807;48.024;11.726;2023-04-30T04:19:34;7.43;;;5.90;;
9536;SDS011;4807;48.024;11.726;2023-04-30T04:22:44;7.87;;;5.57;;
9536;SDS011;4807;48.024;11.726;2023-04-30T04:25:53;6.80;;;5.17;;
9536;SDS011;4807;48.024;11.726;2023-04-30T04:29:03;6.17;;;5.30;;
9536;SDS011;4807;48.024;11.726;2023-04-30T04:32:11;5.50;;;4.90;;
9536;SDS011;4807;48.024;11.726;2023-04-30T04:35:21;5.90;;;4.77;;
9536;SDS011;4807;48.024;11.726;2023-04-30T04:38:31;6.70;;;5.00;;
9536;SDS011;4807;48.024;11.726;2023-04-30T04:41:40;6.70;;;5.20;;
9536;SDS011;4807;48.024;11.726;2023-04-30T04:44:49;5.87;;;4.97;;
9536;SDS011;4807;48.024;11.726;2023-04-30T04:47:58;8.43;;;5.20;;
9536;SDS011;4807;48.024;11.726;2023-04-30T04:51:07;6.10;;;5.50;;
9536;SDS011;4807;48.024;11.726;2023-04-30T04:54:17;5.73;;;5.13;;
9536;SDS011;4807;48.024;11.726;2023-04-30T04:57:28;6.37;;;5.20;;
9536;SDS011;4807;48.024;11.726;2023-04-30T05:00:37;6.30;;;5.20;;
9536;SDS011;4807;48.024;11.726;2023-04-30T05:03:47;5.90;;;5.23;;
9536;SDS011;4807;48.024;11.726;2023-04-30T05:06:57;6.87;;;5.50;;
9536;SDS011;4807;48.024;11.726;2023-04-30T05:10:08;5.47;;;4.70;;
9536;SDS011;4807;48.024;11.726;2023-04-30T05:13:17;5.57;;;4.87;;
9536;SDS011;4807;48.024;11.726;2023-04-30T05:16:25;6.13;;;4.83;;
9536;SDS011;4807;48.024;11.726;2023-04-30T05:19:34;6.93;;;5.20;;
9536;SDS011;4807;48.024;11.726;2023-04-30T05:22:42;5.83;;;4.90;;
9536;SDS011;4807;48.024;11.726;2023-04-30T05:25:53;5.33;;;4.83;;
9536;SDS011;4807;48.024;11.726;2023-04-30T05:29:02;6.77;;;5.67;;
9536;SDS011;4807;48.024;11.726;2023-04-30T05:32:11;5.43;;;4.87;;
9536;SDS011;4807;48.024;11.726;2023-04-30T05:35:19;5.33;;;4.47;;
9536;SDS011;4807;48.024;11.726;2023-04-30T05:38:28;5.77;;;4.77;;
9536;SDS011;4807;48.024;11.726;2023-04-30T05:41:38;5.20;;;4.70;;
9536;SDS011;4807;48.024;11.726;2023-04-30T05:44:49;5.10;;;4.47;;
9536;SDS011;4807;48.024;11.726;2023-04-30T05:47:57;5.80;;;4.23;;
9536;SDS011;4807;48.024;11.726;2023-04-30T05:51:07;5.77;;;4.60;;
9536;SDS011;4807;48.024;11.726;2023-04-30T05:54:16;5.07;;;4.17;;
9536;SDS011;4807;48.024;11.726;2023-04-30T05:57:26;4.97;;;4.47;;
9536;SDS011;4807;48.024;11.726;2023-04-30T06:00:35;4.47;;;4.07;;
9536;SDS011;4807;48.024;11.726;2023-04-30T06:03:44;6.23;;;4.73;;
9536;SDS011;4807;48.024;11.726;2023-04-30T06:07:01;4.40;;;4.00;;
9536;SDS011;4807;48.024;11.726;2023-04-30T06:10:09;5.93;;;4.63;;
9536;SDS011;4807;48.024;11.726;2023-04-30T06:13:18;4.40;;;4.00;;
9536;SDS011;4807;48.024;11.726;2023-04-30T06:16:27;4.83;;;4.23;;
9536;SDS011;4807;48.024;11.726;2023-04-30T06:19:36;5.07;;;3.90;;
9536;SDS011;4807;48.024;11.726;2023-04-30T06:22:46;3.70;;;3.40;;
9536;SDS011;4807;48.024;11.726;2023-04-30T06:25:54;3.87;;;3.47;;
9536;SDS011;4807;48.024;11.726;2023-04-30T06:29:03;3.57;;;3.27;;
9536;SDS011;4807;48.024;11.726;2023-04-30T06:32:12;3.10;;;2.90;;
9536;SDS011;4807;48.024;11.726;2023-04-30T06:35:20;2.90;;;2.70;;
9536;SDS011;4807;48.024;11.726;2023-04-30T06:38:31;3.13;;;2.87;;
9536;SDS011;4807;48.024;11.726;2023-04-30T06:41:39;2.80;;;2.60;;
9536;SDS011;4807;48.024;11.726;2023-04-30T06:44:48;2.90;;;2.53;;
9536;SDS011;4807;48.024;11.726;2023-04-30T06:47:57;3.47;;;3.17;;
9536;SDS011;4807;48.024;11.726;2023-04-30T06:51:06;3.30;;;3.10;;
9536;SDS011;4807;48.024;11.726;2023-04-30T06:54:17;3.80;;;3.20;;
9536;SDS011;4807;48.024;11.726;2023-04-30T06:57:28;3.20;;;2.90;;
9536;SDS011;4807;48.024;11.726;2023-04-30T07:00:37;2.90;;;2.70;;
9536;SDS011;4807;48.024;11.726;2023-04-30T07:03:45;3.60;;;3.33;;
9536;SDS011;4807;48.024;11.726;2023-04-30T07:06:54;3.63;;;2.80;;
9536;SDS011;4807;48.024;11.726;2023-04-30T07:10:05;3.17;;;2.57;;
9536;SDS011;4807;48.024;11.726;2023-04-30T07:13:14;3.13;;;2.83;;
9536;SDS011;4807;48.024;11.726;2023-04-30T07:16:23;3.83;;;3.53;;
9536;SDS011;4807;48.024;11.726;2023-04-30T07:19:33;3.43;;;3.07;;
9536;SDS011;4807;48.024;11.726;2023-04-30T07:22:42;3.50;;;2.53;;
9536;SDS011;4807;48.024;11.726;2023-04-30T07:25:52;3.40;;;3.10;;
9536;SDS011;4807;48.024;11.726;2023-04-30T07:29:01;2.97;;;2.70;;
9536;SDS011;4807;48.024;11.726;2023-04-30T07:32:10;3.00;;;2.80;;
9536;SDS011;4807;48.024;11.726;2023-04-30T07:35:19;4.93;;;3.50;;
9536;SDS011;4807;48.024;11.726;2023-04-30T07:38:28;3.23;;;2.97;;
9536;SDS011;4807;48.024;11.726;2023-04-30T07:41:38;3.90;;;3.60;;
9536;SDS011;4807;48.024;11.726;2023-04-30T07:44:46;4.17;;;3.77;;
9536;SDS011;4807;48.024;11.726;2023-04-30T07:47:55;3.87;;;3.40;;
9536;SDS011;4807;48.024;11.726;2023-04-30T07:51:04;5.03;;;4.20;;
9536;SDS011;4807;48.024;11.726;2023-04-30T07:54:12;4.93;;;3.20;;
9536;SDS011;4807;48.024;11.726;2023-04-30T07:57:22;3.83;;;3.43;;
9536;SDS011;4807;48.024;11.726;2023-04-30T08:00:32;3.40;;;3.13;;
9536;SDS011;4807;48.024;11.726;2023-04-30T08:03:40;4.60;;;4.20;;
9536;SDS011;4807;48.024;11.726;2023-04-30T08:06:49;5.37;;;4.87;;
9536;SDS011;4807;48.024;11.726;2023-04-30T08:10:03;4.00;;;3.63;;
9536;SDS011;4807;48.024;11.726;2023-04-30T08:13:14;4.27;;;3.87;;
9536;SDS011;4807;48.024;11.726;2023-04-30T08:16:22;4.43;;;4.03;;
9536;SDS011;4807;48.024;11.726;2023-04-30T08:19:31;4.60;;;4.10;;
9536;SDS011;4807;48.024;11.726;2023-04-30T08:22:40;3.43;;;3.13;;
9536;SDS011;4807;48.024;11.726;2023-04-30T08:25:48;3.20;;;3.00;;
9536;SDS011;4807;48.024;11.726;2023-04-30T08:29:01;3.33;;;3.13;;
9536;SDS011;4807;48.024;11.726;2023-04-30T08:32:10;3.63;;;3.17;;
9536;SDS011;4807;48.024;11.726;2023-04-30T08:35:18;3.47;;;3.27;;
9536;SDS011;4807;48.024;11.726;2023-04-30T08:38:27;3.50;;;3.20;;
9536;SDS011;4807;48.024;11.726;2023-04-30T08:41:36;4.07;;;3.07;;
9536;SDS011;4807;48.024;11.726;2023-04-30T08:44:50;2.50;;;2.30;;
9536;SDS011;4807;48.024;11.726;2023-04-30T08:47:59;3.23;;;2.43;;
9536;SDS011;4807;48.024;11.726;2023-04-30T08:51:08;2.73;;;2.53;;
9536;SDS011;4807;48.024;11.726;2023-04-30T08:54:17;3.47;;;2.70;;
9536;SDS011;4807;48.024;11.726;2023-04-30T08:57:26;2.93;;;2.73;;
9536;SDS011;4807;48.024;11.726;2023-04-30T09:00:36;3.87;;;3.10;;
9536;SDS011;4807;48.024;11.726;2023-04-30T09:03:45;2.53;;;2.37;;
9536;SDS011;4807;48.024;11.726;2023-04-30T09:06:54;2.80;;;2.50;;
9536;SDS011;4807;48.024;11.726;2023-04-30T09:10:05;2.83;;;2.63;;
9536;SDS011;4807;48.024;11.726;2023-04-30T09:13:23;3.40;;;2.70;;
9536;SDS011;4807;48.024;11.726;2023-04-30T09:16:44;3.30;;;2.83;;
9536;SDS011;4807;48.024;11.726;2023-04-30T09:19:54;3.10;;;2.90;;
9536;SDS011;4807;48.024;11.726;2023-04-30T09:23:13;3.27;;;2.97;;
9536;SDS011;4807;48.024;11.726;2023-04-30T09:26:25;3.07;;;2.87;;
9536;SDS011;4807;48.024;11.726;2023-04-30T09:29:36;3.33;;;2.77;;
9536;SDS011;4807;48.024;11.726;2023-04-30T09:32:54;3.27;;;2.97;;
9536;SDS011;4807;48.024;11.726;2023-04-30T09:36:07;4.00;;;3.17;;
9536;SDS011;4807;48.024;11.726;2023-04-30T09:39:16;3.10;;;2.90;;
9536;SDS011;4807;48.024;11.726;2023-04-30T09:42:25;3.37;;;3.00;;
9536;SDS011;4807;48.024;11.726;2023-04-30T09:45:40;3.13;;;2.83;;
9536;SDS011;4807;48.024;11.726;2023-04-30T09:48:59;3.33;;;3.00;;
9536;SDS011;4807;48.024;11.726;2023-04-30T09:52:09;2.67;;;2.50;;
9536;SDS011;4807;48.024;11.726;2023-04-30T09:55:18;2.70;;;2.50;;
9536;SDS011;4807;48.024;11.726;2023-04-30T09:58:28;3.30;;;3.00;;
9536;SDS011;4807;48.024;11.726;2023-04-30T10:01:42;3.17;;;2.97;;
9536;SDS011;4807;48.024;11.726;2023-04-30T10:04:54;2.90;;;2.70;;
9536;SDS011;4807;48.024;11.726;2023-04-30T10:08:04;2.40;;;2.30;;
9536;SDS011;4807;48.024;11.726;2023-04-30T10:11:20;2.50;;;2.30;;
9536;SDS011;4807;48.024;11.726;2023-04-30T10:14:29;3.40;;;3.10;;
9536;SDS011;4807;48.024;11.726;2023-04-30T10:17:39;2.43;;;2.33;;
9536;SDS011;4807;48.024;11.726;2023-04-30T10:20:55;2.60;;;2.40;;
9536;SDS011;4807;48.024;11.726;2023-04-30T10:24:08;3.20;;;2.90;;
9536;SDS011;4807;48.024;11.726;2023-04-30T10:27:23;2.80;;;2.60;;
9536;SDS011;4807;48.024;11.726;2023-04-30T10:30:32;2.57;;;2.37;;
9536;SDS011;4807;48.024;11.726;2023-04-30T10:33:43;2.83;;;2.63;;
9536;SDS011;4807;48.024;11.726;2023-04-30T10:37:02;2.77;;;2.57;;
9536;SDS011;4807;48.024;11.726;2023-04-30T10:40:17;3.20;;;2.90;;
9536;SDS011;4807;48.024;11.726;2023-04-30T10:43:28;4.03;;;2.40;;
9536;SDS011;4807;48.024;11.726;2023-04-30T10:46:38;3.20;;;2.90;;
9536;SDS011;4807;48.024;11.726;2023-04-30T10:49:48;2.93;;;2.73;;
9536;SDS011;4807;48.024;11.726;2023-04-30T10:53:02;2.47;;;2.27;;
9536;SDS011;4807;48.024;11.726;2023-04-30T10:56:11;3.03;;;2.73;;
9536;SDS011;4807;48.024;11.726;2023-04-30T10:59:20;3.60;;;3.30;;
9536;SDS011;4807;48.024;11.726;2023-04-30T11:02:37;3.03;;;2.77;;
9536;SDS011;4807;48.024;11.726;2023-04-30T11:05:46;2.47;;;2.27;;
9536;SDS011;4807;48.024;11.726;2023-04-30T11:08:56;3.60;;;3.00;;
9536;SDS011;4807;48.024;11.726;2023-04-30T11:12:12;3.77;;;3.07;;
9536;SDS011;4807;48.024;11.726;2023-04-30T11:15:23;3.00;;;2.80;;
9536;SDS011;4807;48.024;11.726;2023-04-30T11:18:32;2.80;;;2.60;;
9536;SDS011;4807;48.024;11.726;2023-04-30T11:21:41;3.10;;;2.80;;
9536;SDS011;4807;48.024;11.726;2023-04-30T11:25:24;3.10;;;2.90;;
9536;SDS011;4807;48.024;11.726;2023-04-30T11:28:32;2.83;;;2.63;;
9536;SDS011;4807;48.024;11.726;2023-04-30T11:31:43;3.23;;;2.90;;
9536;SDS011;4807;48.024;11.726;2023-04-30T11:34:53;2.80;;;2.60;;
9536;SDS011;4807;48.024;11.726;2023-04-30T11:38:01;2.73;;;2.53;;
9536;SDS011;4807;48.024;11.726;2023-04-30T11:41:13;1.73;;;1.63;;
9536;SDS011;4807;48.024;11.726;2023-04-30T11:44:22;2.63;;;2.43;;
9536;SDS011;4807;48.024;11.726;2023-04-30T11:47:38;2.77;;;2.40;;
9536;SDS011;4807;48.024;11.726;2023-04-30T11:50:48;2.00;;;1.90;;
9536;SDS011;4807;48.024;11.726;2023-04-30T11:53:57;2.90;;;2.20;;
9536;SDS011;4807;48.024;11.726;2023-04-30T11:57:07;2.40;;;2.20;;
9536;SDS011;4807;48.024;11.726;2023-04-30T12:00:16;2.90;;;2.00;;
9536;SDS011;4807;48.024;11.726;2023-04-30T12:03:26;2.97;;;2.03;;
9536;SDS011;4807;48.024;11.726;2023-04-30T12:06:35;2.30;;;2.10;;
9536;SDS011;4807;48.024;11.726;2023-04-30T12:09:51;2.07;;;1.87;;
9536;SDS011;4807;48.024;11.726;2023-04-30T12:13:02;2.53;;;2.30;;
9536;SDS011;4807;48.024;11.726;2023-04-30T12:16:10;4.03;;;2.80;;
9536;SDS011;4807;48.024;11.726;2023-04-30T12:19:20;2.10;;;1.73;;
9536;SDS011;4807;48.024;11.726;2023-04-30T12:22:30;2.10;;;1.90;;
9536;SDS011;4807;48.024;11.726;2023-04-30T12:25:39;1.90;;;1.80;;
9536;SDS011;4807;48.024;11.726;2023-04-30T12:28:50;1.77;;;1.67;;
9536;SDS011;4807;48.024;11.726;2023-04-30T12:31:59;2.27;;;2.07;;
9536;SDS011;4807;48.024;11.726;2023-04-30T12:35:08;1.73;;;1.63;;
9536;SDS011;4807;48.024;11.726;2023-04-30T12:38:21;1.53;;;1.43;;
9536;SDS011;4807;48.024;11.726;2023-04-30T12:41:29;1.57;;;1.47;;
9536;SDS011;4807;48.024;11.726;2023-04-30T12:44:42;1.80;;;1.70;;
9536;SDS011;4807;48.024;11.726;2023-04-30T12:47:52;2.10;;;2.00;;
9536;SDS011;4807;48.024;11.726;2023-04-30T12:51:01;1.80;;;1.70;;
9536;SDS011;4807;48.024;11.726;2023-04-30T12:54:10;1.80;;;1.70;;
9536;SDS011;4807;48.024;11.726;2023-04-30T12:57:19;1.73;;;1.50;;
9536;SDS011;4807;48.024;11.726;2023-04-30T13:00:29;2.40;;;1.30;;
9536;SDS011;4807;48.024;11.726;2023-04-30T13:03:49;2.00;;;1.40;;
9536;SDS011;4807;48.024;11.726;2023-04-30T13:07:00;1.50;;;1.40;;
9536;SDS011;4807;48.024;11.726;2023-04-30T13:10:10;1.70;;;1.60;;
9536;SDS011;4807;48.024;11.726;2023-04-30T13:13:19;1.97;;;1.83;;
9536;SDS011;4807;48.024;11.726;2023-04-30T13:16:29;1.73;;;1.63;;
9536;SDS011;4807;48.024;11.726;2023-04-30T13:19:39;2.97;;;1.60;;
9536;SDS011;4807;48.024;11.726;2023-04-30T13:22:48;1.63;;;1.53;;
9536;SDS011;4807;48.024;11.726;2023-04-30T13:25:56;2.83;;;2.10;;
9536;SDS011;4807;48.024;11.726;2023-04-30T13:29:05;1.63;;;1.40;;
9536;SDS011;4807;48.024;11.726;2023-04-30T13:32:15;2.83;;;1.70;;
9536;SDS011;4807;48.024;11.726;2023-04-30T13:35:24;2.03;;;1.63;;
9536;SDS011;4807;48.024;11.726;2023-04-30T13:38:33;1.50;;;1.40;;
9536;SDS011;4807;48.024;11.726;2023-04-30T13:41:41;1.60;;;1.50;;
9536;SDS011;4807;48.024;11.726;2023-04-30T13:44:50;1.50;;;1.40;;
9536;SDS011;4807;48.024;11.726;2023-04-30T13:48:01;1.60;;;1.37;;
9536;SDS011;4807;48.024;11.726;2023-04-30T13:51:10;2.03;;;1.43;;
9536;SDS011;4807;48.024;11.726;2023-04-30T13:54:19;1.83;;;1.70;;
9536;SDS011;4807;48.024;11.726;2023-04-30T13:57:28;2.33;;;1.43;;
9536;SDS011;4807;48.024;11.726;2023-04-30T14:00:38;2.77;;;1.73;;
9536;SDS011;4807;48.024;11.726;2023-04-30T14:03:48;2.00;;;1.90;;
9536;SDS011;4807;48.024;11.726;2023-04-30T14:06:57;2.10;;;2.00;;
9536;SDS011;4807;48.024;11.726;2023-04-30T14:10:07;2.00;;;1.50;;
9536;SDS011;4807;48.024;11.726;2023-04-30T14:13:18;2.00;;;1.90;;
9536;SDS011;4807;48.024;11.726;2023-04-30T14:16:27;1.77;;;1.67;;
9536;SDS011;4807;48.024;11.726;2023-04-30T14:19:37;1.80;;;1.70;;
9536;SDS011;4807;48.024;11.726;2023-04-30T14:22:46;2.20;;;1.60;;
9536;SDS011;4807;48.024;11.726;2023-04-30T14:25:56;1.53;;;1.43;;
9536;SDS011;4807;48.024;11.726;2023-04-30T14:29:05;1.30;;;1.13;;
9536;SDS011;4807;48.024;11.726;2023-04-30T14:32:14;1.53;;;1.43;;
9536;SDS011;4807;48.024;11.726;2023-04-30T14:35:25;1.50;;;1.40;;
9536;SDS011;4807;48.024;11.726;2023-04-30T14:38:35;1.40;;;1.30;;
9536;SDS011;4807;48.024;11.726;2023-04-30T14:41:44;1.50;;;1.30;;
9536;SDS011;4807;48.024;11.726;2023-04-30T14:44:52;1.70;;;1.23;;
9536;SDS011;4807;48.024;11.726;2023-04-30T14:48:01;1.70;;;1.60;;
9536;SDS011;4807;48.024;11.726;2023-04-30T14:51:12;1.87;;;1.37;;
9536;SDS011;4807;48.024;11.726;2023-04-30T14:54:21;2.07;;;1.87;;
9536;SDS011;4807;48.024;11.726;2023-04-30T14:57:29;2.30;;;1.43;;
9536;SDS011;4807;48.024;11.726;2023-04-30T15:00:39;2.60;;;1.50;;
9536;SDS011;4807;48.024;11.726;2023-04-30T15:03:48;1.60;;;1.40;;
9536;SDS011;4807;48.024;11.726;2023-04-30T15:06:58;2.07;;;1.10;;
9536;SDS011;4807;48.024;11.726;2023-04-30T15:10:08;1.23;;;1.13;;
9536;SDS011;4807;48.024;11.726;2023-04-30T15:13:17;1.53;;;1.40;;
9536;SDS011;4807;48.024;11.726;2023-04-30T15:16:26;3.00;;;1.60;;
9536;SDS011;4807;48.024;11.726;2023-04-30T15:19:35;1.70;;;1.60;;
9536;SDS011;4807;48.024;11.726;2023-04-30T15:22:46;1.57;;;1.27;;
9536;SDS011;4807;48.024;11.726;2023-04-30T15:25:56;1.63;;;1.53;;
9536;SDS011;4807;48.024;11.726;2023-04-30T15:29:04;2.87;;;2.30;;
9536;SDS011;4807;48.024;11.726;2023-04-30T15:32:14;2.03;;;1.60;;
9536;SDS011;4807;48.024;11.726;2023-04-30T15:35:23;1.50;;;1.40;;
9536;SDS011;4807;48.024;11.726;2023-04-30T15:38:34;1.80;;;1.70;;
9536;SDS011;4807;48.024;11.726;2023-04-30T15:41:42;3.73;;;2.00;;
9536;SDS011;4807;48.024;11.726;2023-04-30T15:44:51;2.30;;;1.77;;
9536;SDS011;4807;48.024;11.726;2023-04-30T15:48:00;2.27;;;1.53;;
9536;SDS011;4807;48.024;11.726;2023-04-30T15:51:10;2.93;;;1.90;;
9536;SDS011;4807;48.024;11.726;2023-04-30T15:54:20;2.17;;;1.93;;
9536;SDS011;4807;48.024;11.726;2023-04-30T15:57:29;2.60;;;1.93;;
9536;SDS011;4807;48.024;11.726;2023-04-30T16:00:38;1.80;;;1.70;;
9536;SDS011;4807;48.024;11.726;2023-04-30T16:03:47;3.37;;;2.53;;
9536;SDS011;4807;48.024;11.726;2023-04-30T16:06:56;3.07;;;2.57;;
9536;SDS011;4807;48.024;11.726;2023-04-30T16:10:08;2.57;;;2.30;;
9536;SDS011;4807;48.024;11.726;2023-04-30T16:13:17;2.73;;;2.53;;
9536;SDS011;4807;48.024;11.726;2023-04-30T16:16:26;2.37;;;2.17;;
9536;SDS011;4807;48.024;11.726;2023-04-30T16:19:35;2.90;;;2.20;;
9536;SDS011;4807;48.024;11.726;2023-04-30T16:22:44;2.33;;;2.13;;
9536;SDS011;4807;48.024;11.726;2023-04-30T16:25:54;2.73;;;2.53;;
9536;SDS011;4807;48.024;11.726;2023-04-30T16:29:03;2.03;;;1.93;;
9536;SDS011;4807;48.024;11.726;2023-04-30T16:32:12;2.53;;;2.23;;
9536;SDS011;4807;48.024;11.726;2023-04-30T16:35:21;1.87;;;1.77;;
9536;SDS011;4807;48.024;11.726;2023-04-30T16:38:29;2.40;;;2.20;;
9536;SDS011;4807;48.024;11.726;2023-04-30T16:41:39;1.83;;;1.70;;
9536;SDS011;4807;48.024;11.726;2023-04-30T16:44:48;3.33;;;1.83;;
9536;SDS011;4807;48.024;11.726;2023-04-30T16:47:57;2.30;;;1.60;;
9536;SDS011;4807;48.024;11.726;2023-04-30T16:51:05;1.90;;;1.80;;
9536;SDS011;4807;48.024;11.726;2023-04-30T16:54:14;1.97;;;1.87;;
9536;SDS011;4807;48.024;11.726;2023-04-30T16:57:24;2.67;;;2.20;;
9536;SDS011;4807;48.024;11.726;2023-04-30T17:00:34;1.80;;;1.70;;
9536;SDS011;4807;48.024;11.726;2023-04-30T17:03:42;2.33;;;1.93;;
9536;SDS011;4807;48.024;11.726;2023-04-30T17:06:52;2.57;;;1.70;;
9536;SDS011;4807;48.024;11.726;2023-04-30T17:10:01;2.23;;;2.03;;
9536;SDS011;4807;48.024;11.726;2023-04-30T17:13:11;1.80;;;1.70;;
9536;SDS011;4807;48.024;11.726;2023-04-30T17:16:20;2.27;;;2.00;;
9536;SDS011;4807;48.024;11.726;2023-04-30T17:19:29;1.60;;;1.50;;
9536;SDS011;4807;48.024;11.726;2023-04-30T17:22:38;3.27;;;1.50;;
9536;SDS011;4807;48.024;11.726;2023-04-30T17:25:47;1.87;;;1.77;;
9536;SDS011;4807;48.024;11.726;2023-04-30T17:28:58;2.23;;;1.70;;
9536;SDS011;4807;48.024;11.726;2023-04-30T17:32:07;2.03;;;1.77;;
9536;SDS011;4807;48.024;11.726;2023-04-30T17:35:16;1.90;;;1.40;;
9536;SDS011;4807;48.024;11.726;2023-04-30T17:38:25;3.30;;;1.50;;
9536;SDS011;4807;48.024;11.726;2023-04-30T17:41:34;1.67;;;1.57;;
9536;SDS011;4807;48.024;11.726;2023-04-30T17:44:44;1.50;;;1.40;;
9536;SDS011;4807;48.024;11.726;2023-04-30T17:47:54;2.90;;;1.53;;
9536;SDS011;4807;48.024;11.726;2023-04-30T17:51:02;2.97;;;1.53;;
9536;SDS011;4807;48.024;11.726;2023-04-30T17:54:11;1.67;;;1.57;;
9536;SDS011;4807;48.024;11.726;2023-04-30T17:57:20;2.60;;;1.60;;
9536;SDS011;4807;48.024;11.726;2023-04-30T18:00:31;2.20;;;2.00;;
9536;SDS011;4807;48.024;11.726;2023-04-30T18:03:40;2.43;;;2.23;;
9536;SDS011;4807;48.024;11.726;2023-04-30T18:06:50;2.37;;;2.10;;
9536;SDS011;4807;48.024;11.726;2023-04-30T18:09:59;3.57;;;2.70;;
9536;SDS011;4807;48.024;11.726;2023-04-30T18:13:08;3.10;;;2.80;;
9536;SDS011;4807;48.024;11.726;2023-04-30T18:16:18;3.43;;;2.73;;
9536;SDS011;4807;48.024;11.726;2023-04-30T18:19:26;2.30;;;2.10;;
9536;SDS011;4807;48.024;11.726;2023-04-30T18:22:36;2.87;;;2.07;;
9536;SDS011;4807;48.024;11.726;2023-04-30T18:25:48;2.97;;;1.70;;
9536;SDS011;4807;48.024;11.726;2023-04-30T18:28:58;1.60;;;1.50;;
9536;SDS011;4807;48.024;11.726;2023-04-30T18:32:10;2.60;;;2.40;;
9536;SDS011;4807;48.024;11.726;2023-04-30T18:35:19;2.60;;;2.07;;
9536;SDS011;4807;48.024;11.726;2023-04-30T18:38:28;2.83;;;1.93;;
9536;SDS011;4807;48.024;11.726;2023-04-30T18:41:37;4.33;;;3.23;;
9536;SDS011;4807;48.024;11.726;2023-04-30T18:44:46;3.43;;;2.73;;
9536;SDS011;4807;48.024;11.726;2023-04-30T18:47:56;2.97;;;2.23;;
9536;SDS011;4807;48.024;11.726;2023-04-30T18:51:05;2.00;;;1.90;;
9536;SDS011;4807;48.024;11.726;2023-04-30T18:54:14;3.00;;;1.93;;
9536;SDS011;4807;48.024;11.726;2023-04-30T18:57:23;2.97;;;1.93;;
9536;SDS011;4807;48.024;11.726;2023-04-30T19:00:31;2.50;;;1.70;;
9536;SDS011;4807;48.024;11.726;2023-04-30T19:03:41;1.93;;;1.83;;
9536;SDS011;4807;48.024;11.726;2023-04-30T19:06:50;4.90;;;2.23;;
9536;SDS011;4807;48.024;11.726;2023-04-30T19:10:01;4.00;;;2.50;;
9536;SDS011;4807;48.024;11.726;2023-04-30T19:13:10;2.53;;;2.27;;
9536;SDS011;4807;48.024;11.726;2023-04-30T19:16:19;2.37;;;2.17;;
9536;SDS011;4807;48.024;11.726;2023-04-30T19:19:30;1.90;;;1.80;;
9536;SDS011;4807;48.024;11.726;2023-04-30T19:22:39;3.20;;;2.20;;
9536;SDS011;4807;48.024;11.726;2023-04-30T19:25:48;2.10;;;2.00;;